Amboy, West Virginia
Current Conditions -  °F | °C
As of 6:40 PM on Saturday 22 Nov 2014 (Local Time) from K2G4 Reporting Station
Overcast Overcast  
Wind Chill: 40°   Ceiling: 5500
Heat Index: 45°   Visibility: 10mi
Dew Point: 25°   Wind: 8mph
Humidity: 46%   Direction: 200°SSW
Pressure: 30.18"   Gusts: NA
Location:  39.2915°N, 79.5765°W
Report Text: K2G4 222340Z AUTO 20007KT 10SM BKN055 OVC090 07/M04 A3018 RMK AO1
Loading
Personal Weather Stations






























Interactive Weather Map New forecast layout! Learn more

10-Day Weather Forecast

Advertisements
Track Severe Weather on mobile